Data for 03/29/2016

Time Sea-Level Adjusted Pressure Absolute Pressure Temperature Relative Humidity Dew Point   
(mb) (inHg) (mb) (inHg) (C) (F) (%) (C) (F)
00:05 1014 29.94 843 24.89 0.6 33.1 78 -2.8 27
00:10 1014 29.94 843 24.89 0.6 33.1 78 -2.8 26.9
00:15 1014 29.94 843 24.89 0.5 32.9 78 -2.9 26.8
00:20 1014 29.94 843 24.89 0.5 32.8 79 -2.8 26.9
00:25 1014 29.94 843 24.89 0.4 32.8 78 -2.9 26.8
00:30 1014 29.94 843 24.89 0.4 32.8 78 -2.9 26.8
00:35 1014 29.94 843 24.89 0.4 32.6 80 -2.7 27.1
00:40 1014 29.94 843 24.89 0.3 32.6 80 -2.7 27.2
00:45 1014 29.94 843 24.89 0.2 32.4 82 -2.5 27.6
00:50 1014 29.94 843 24.89 0.2 32.3 83 -2.4 27.6
00:55 1014 29.94 843 24.89 0.1 32.1 85 -2.2 28
01:00 1014 29.94 843 24.89 0 32.1 85 -2.2 28.1
01:05 1014 29.94 843 24.89 0 32 85 -2.2 28
01:10 1014 29.94 843 24.89 -0 32 84 -2.4 27.7
01:15 1014 29.94 843 24.89 0 32.1 83 -2.6 27.3
01:20 1014 29.94 843 24.89 0.1 32.2 83 -2.5 27.6
01:25 1014 29.94 843 24.89 0.1 32.1 84 -2.4 27.7
01:30 1014 29.94 843 24.89 0 32.1 83 -2.5 27.4
01:35 1014 29.94 843 24.89 0.1 32.1 83 -2.5 27.6
01:40 1014 29.94 843 24.89 0.1 32.2 83 -2.4 27.6
01:45 1014 29.94 843 24.89 0.1 32.1 84 -2.3 27.8
01:50 1014 29.94 843 24.89 0 32.1 85 -2.3 27.9
01:55 1014 29.94 843 24.89 0 32.1 85 -2.2 28.1
02:00 1014 29.94 843 24.89 0 32.1 84 -2.4 27.7
02:05 1014 29.94 843 24.89 0.1 32.2 84 -2.2 28
02:10 1014 29.94 843 24.89 0.1 32.2 85 -2.1 28.2
02:15 1014 29.94 843 24.89 0.1 32.1 83 -2.6 27.4
02:20 1014 29.94 843 24.89 0.2 32.3 82 -2.5 27.5
02:25 1014 29.94 843 24.89 0.2 32.3 82 -2.6 27.4
02:30 1014 29.94 843 24.89 0.2 32.4 81 -2.7 27.2
02:35 1014 29.94 843 24.89 0.2 32.4 80 -2.8 26.9
02:40 1014 29.94 843 24.89 0.2 32.4 81 -2.6 27.3
02:45 1014 29.94 843 24.89 0.2 32.3 81 -2.7 27.1
02:50 1014 29.94 843 24.89 0.1 32.2 82 -2.6 27.3
02:55 1014 29.94 843 24.89 0.1 32.1 82 -2.7 27.1
03:00 1014 29.94 843 24.89 0 32 82 -2.7 27.1
03:05 1014 29.94 843 24.89 0 32 82 -2.7 27.1
03:10 1014 29.94 843 24.89 0 32 82 -2.7 27.1
03:15 1014 29.94 843 24.89 0 32 81 -2.8 26.9
03:20 1014 29.94 843 24.89 0 32 81 -2.8 26.9
03:25 1014 29.94 843 24.89 -0 31.9 81 -2.9 26.8
03:30 1014 29.94 843 24.89 -0 32 80 -3 26.6
03:35 1014 29.94 843 24.89 0 32.1 80 -3 26.6
03:40 1014 29.94 843 24.89 0 32 80 -3 26.6
03:45 1014 29.94 843 24.89 0 32 80 -3 26.6
03:50 1014 29.94 843 24.89 -0 32 79 -3.3 26.1
03:55 1014 29.94 843 24.89 0.1 32.1 78 -3.3 26.1
04:00 1014 29.94 843 24.89 0.1 32.2 79 -3.2 26.3
04:05 1014 29.94 843 24.89 0.1 32.1 77 -3.5 25.8
04:10 1014 29.94 843 24.89 0.1 32.2 77 -3.5 25.8
04:15 1014 29.94 843 24.89 0.1 32.2 76 -3.6 25.6
04:20 1014 29.94 843 24.89 0.1 32.2 77 -3.4 25.9
04:25 1014 29.94 843 24.89 0.1 32.2 78 -3.3 26
04:30 1014 29.94 843 24.89 0.1 32.2 78 -3.3 26
04:35 1014 29.94 843 24.89 0.1 32.3 78 -3.2 26.2
04:40 1014 29.94 843 24.89 0.1 32.3 79 -3 26.5
04:45 1014 29.94 843 24.89 0.2 32.3 79 -3 26.5
04:50 1014 29.94 843 24.89 0 32 80 -3.1 26.5
04:55 1014 29.94 843 24.89 -0.1 31.8 81 -3 26.7
05:00 1014 29.94 843 24.89 -0.1 31.7 82 -2.8 27
05:05 1014 29.94 843 24.89 -0.3 31.5 82 -2.9 26.7
05:10 1014 29.94 843 24.89 -0.3 31.5 82 -3 26.7
05:15 1014 29.94 843 24.89 -0.1 31.8 80 -3.1 26.4
05:20 1014 29.94 843 24.89 0.1 32.1 79 -3.1 26.4
05:25 1014 29.94 843 24.89 0.2 32.4 80 -2.8 27
05:30 1014 29.94 843 24.89 0.1 32.1 80 -3 26.7
05:35 1014 29.94 843 24.89 -0 31.9 76 -3.8 25.1
05:40 1014 29.94 843 24.89 -0 32 75 -3.9 24.9
05:45 1014 29.94 843 24.89 0 32 72 -4.5 23.9
05:50 1014 29.94 843 24.89 0.1 32.1 72 -4.4 24
05:55 1014 29.94 843 24.89 0 32.1 74 -4.1 24.6
06:00 1014 29.94 843 24.89 -0 32 74 -4.1 24.7
06:05 1014 29.94 843 24.89 -0.1 31.9 74 -4.1 24.6
06:10 1014 29.94 843 24.89 -0.1 31.9 75 -4 24.7
06:15 1014 29.94 843 24.89 -0.1 31.7 78 -3.5 25.8
06:20 1014 29.94 843 24.89 -0.3 31.5 80 -3.3 26
06:25 1014 29.94 843 24.89 -0.3 31.5 80 -3.3 26.1
06:30 1014 29.94 843 24.89 -0.3 31.5 80 -3.3 26
06:35 1014 29.94 843 24.89 -0.2 31.6 79 -3.4 25.9
06:40 1014 29.94 843 24.89 -0.2 31.6 80 -3.2 26.2
06:45 1014 29.94 843 24.89 -0.2 31.7 80 -3.3 26.1
06:50 1014 29.94 843 24.89 -0 31.9 77 -3.5 25.6
06:55 1014 29.94 843 24.89 -0.1 31.9 78 -3.5 25.8
07:00 1014 29.94 843 24.89 -0 32 77 -3.5 25.7
07:05 1014 29.94 843 24.89 0 32.1 77 -3.5 25.7
07:10 1014 29.94 843 24.89 0 32.1 77 -3.5 25.6
07:15 1014 29.94 843 24.89 0 32.1 76 -3.7 25.4
07:20 1014 29.94 843 24.89 0.1 32.1 76 -3.7 25.4
07:25 1014 29.94 843 24.89 0.1 32.2 76 -3.6 25.5
07:30 1014 29.94 843 24.89 0.2 32.3 77 -3.4 25.8
07:35 1014 29.94 843 24.89 0.2 32.4 77 -3.4 26
07:40 1014 29.94 843 24.89 0.2 32.4 77 -3.4 25.8
07:45 1014 29.94 843 24.89 0.3 32.5 77 -3.3 26
07:50 1014 29.94 843 24.89 0.2 32.3 77 -3.3 26
07:55 1014 29.94 843 24.89 0.2 32.4 78 -3.2 26.3
08:00 1014 29.94 843 24.89 0.2 32.4 79 -3 26.7
08:05 1014 29.94 843 24.89 0.3 32.5 80 -2.7 27.1
08:10 1014 29.94 843 24.89 0.4 32.8 79 -2.7 27.1
08:15 1014 29.94 843 24.89 0.4 32.8 80 -2.6 27.3
08:20 1014 29.94 844 24.92 0.5 32.9 79 -2.7 27.2
08:25 1014 29.94 844 24.92 0.6 33 78 -2.9 26.8
08:30 1014 29.94 844 24.92 0.6 33.1 77 -3 26.6
08:35 1014 29.94 844 24.92 0.7 33.2 79 -2.7 27.2
08:40 1014 29.94 844 24.92 0.6 33.1 78 -2.8 26.9
08:45 1014 29.94 844 24.92 0.7 33.2 79 -2.6 27.2
08:50 1014 29.94 844 24.92 0.7 33.2 77 -2.9 26.8
08:55 1015 29.97 844 24.92 0.4 32.8 81 -2.4 27.6
09:00 1015 29.97 844 24.92 0.2 32.3 83 -2.4 27.6
09:05 1015 29.97 844 24.92 -0.1 31.8 85 -2.3 27.9
09:10 1015 29.97 844 24.92 -0.2 31.6 86 -2.3 27.9
09:15 1015 29.97 844 24.92 -0.3 31.4 87 -2.2 28.1
09:20 1015 29.97 844 24.92 -0.3 31.5 88 -2.1 28.2
09:25 1015 29.97 844 24.92 -0.4 31.3 89 -2.1 28.3
09:30 1015 29.97 844 24.92 -0.3 31.5 89 -2 28.5
09:35 1015 29.97 844 24.92 -0.3 31.5 90 -1.8 28.7
09:40 1015 29.97 844 24.92 -0.3 31.5 88 -2 28.5
09:45 1015 29.97 844 24.92 -0.3 31.4 89 -2 28.5
09:50 1015 29.97 844 24.92 -0.1 31.7 90 -1.7 29
09:55 1015 29.97 844 24.92 0 32 88 -1.7 29
10:00 1015 29.97 844 24.92 -0 31.9 89 -1.6 29.1
10:05 1015 29.97 844 24.92 -0.1 31.8 90 -1.5 29.2
10:10 1015 29.97 844 24.92 0.1 32.2 89 -1.4 29.5
10:15 1015 29.97 844 24.92 0.2 32.3 89 -1.4 29.4
10:20 1015 29.97 844 24.92 0.1 32.1 88 -1.6 29.1
10:25 1015 29.97 844 24.92 0 32 88 -1.7 29
10:30 1015 29.97 844 24.92 0.3 32.5 88 -1.5 29.3
10:35 1015 29.97 844 24.92 0.5 32.9 87 -1.5 29.3
10:40 1015 29.97 844 24.92 0.8 33.4 86 -1.3 29.7
10:45 1015 29.97 844 24.92 1.2 34.1 83 -1.4 29.5
10:50 1015 29.97 844 24.92 1 33.7 84 -1.4 29.5
10:55 1015 29.97 844 24.92 0.9 33.6 85 -1.3 29.6
11:00 1015 29.97 844 24.92 0.9 33.5 86 -1.2 29.8
11:05 1015 29.97 844 24.92 1 33.9 85 -1.2 29.9
11:10 1015 29.97 844 24.92 1 33.9 85 -1.3 29.7
11:15 1015 29.97 844 24.92 1 33.8 86 -1.1 30
11:20 1015 29.97 844 24.92 1.2 34.2 85 -1 30.2
11:25 1015 29.97 844 24.92 1.3 34.4 85 -0.9 30.3
11:30 1015 29.97 844 24.92 1.3 34.4 85 -0.9 30.3
11:35 1015 29.97 844 24.92 1.2 34.2 85 -1 30.3
11:40 1015 29.97 844 24.92 1.3 34.3 85 -1 30.3
11:45 1015 29.97 844 24.92 1.3 34.3 85 -0.9 30.3
11:50 1015 29.97 844 24.92 1.2 34.2 84 -1.2 29.9
11:55 1015 29.97 844 24.92 1.1 34.1 85 -1.1 30.1
12:00 1015 29.97 844 24.92 1.1 34 85 -1.1 30
12:05 1015 29.97 844 24.92 1.1 33.9 85 -1.1 30
12:10 1014 29.94 844 24.92 1 33.9 85 -1.1 29.9
12:15 1015 29.97 844 24.92 1 33.8 85 -1.3 29.7
12:20 1015 29.97 844 24.92 1 33.9 84 -1.3 29.7
12:25 1014 29.94 844 24.92 1.1 34 84 -1.3 29.7
12:30 1014 29.94 844 24.92 1.2 34.1 83 -1.4 29.5
12:35 1014 29.94 844 24.92 1.2 34.2 83 -1.3 29.6
12:40 1014 29.94 844 24.92 1.2 34.2 84 -1.2 29.8
12:45 1014 29.94 844 24.92 1.4 34.5 83 -1.1 30
12:50 1014 29.94 844 24.92 1.4 34.5 82 -1.4 29.4
12:55 1014 29.94 844 24.92 1 33.8 84 -1.5 29.4
13:00 1014 29.94 843 24.89 1.1 33.9 83 -1.6 29.2
13:05 1014 29.94 844 24.92 1.3 34.3 80 -1.8 28.8
13:10 1014 29.94 844 24.92 1.5 34.7 81 -1.4 29.5
13:15 1014 29.94 843 24.89 1.7 35 80 -1.3 29.6
13:20 1014 29.94 843 24.89 1.8 35.3 80 -1.3 29.7
13:25 1014 29.94 843 24.89 1.8 35.2 80 -1.3 29.6
13:30 1014 29.94 843 24.89 1.7 35.1 79 -1.5 29.2
13:35 1014 29.94 843 24.89 1.4 34.5 81 -1.5 29.3
13:40 1014 29.94 843 24.89 1.5 34.7 81 -1.5 29.3
13:45 1014 29.94 843 24.89 1.5 34.8 81 -1.4 29.5
13:50 1014 29.94 843 24.89 1.6 34.9 81 -1.3 29.6
13:55 1014 29.94 843 24.89 1.6 34.9 79 -1.6 29.1
14:00 1014 29.94 843 24.89 1.4 34.5 81 -1.5 29.3
14:05 1014 29.94 843 24.89 1.5 34.7 80 -1.5 29.3
14:10 1014 29.94 843 24.89 1.7 35 81 -1.1 29.9
14:15 1014 29.94 843 24.89 1.8 35.3 79 -1.4 29.5
14:20 1014 29.94 843 24.89 1.9 35.5 79 -1.3 29.6
14:25 1014 29.94 843 24.89 2 35.6 78 -1.4 29.5
14:30 1014 29.94 843 24.89 1.7 35.1 79 -1.5 29.4
14:35 1014 29.94 843 24.89 1.7 35 81 -1.3 29.7
14:40 1014 29.94 843 24.89 1.8 35.2 80 -1.3 29.7
14:45 1014 29.94 843 24.89 1.7 35.1 80 -1.4 29.4
14:50 1014 29.94 843 24.89 1.7 35 81 -1.2 29.9
14:55 1014 29.94 843 24.89 1.9 35.4 81 -1.1 30
15:00 1014 29.94 843 24.89 1.9 35.4 79 -1.3 29.6
15:05 1014 29.94 843 24.89 1.8 35.3 79 -1.4 29.5
15:10 1014 29.94 843 24.89 1.6 35 80 -1.5 29.3
15:15 1014 29.94 843 24.89 1.5 34.6 81 -1.4 29.5
15:20 1014 29.94 843 24.89 1.4 34.5 83 -1.2 29.8
15:25 1014 29.94 843 24.89 1.5 34.7 83 -1.1 30.1
15:30 1014 29.94 843 24.89 1.5 34.7 82 -1.2 29.9
15:35 1014 29.94 843 24.89 1.4 34.6 84 -1 30.2
15:40 1014 29.94 843 24.89 1.5 34.6 83 -1.1 30.1
15:45 1014 29.94 843 24.89 1.4 34.5 83 -1.1 30
15:50 1014 29.94 843 24.89 1.4 34.5 84 -1 30.2
15:55 1014 29.94 843 24.89 1.5 34.6 84 -1 30.3
16:00 1014 29.94 843 24.89 1.6 34.8 84 -0.8 30.5
16:05 1014 29.94 843 24.89 1.7 35.1 84 -0.8 30.6
16:10 1014 29.94 843 24.89 1.8 35.2 83 -0.8 30.6
16:15 1014 29.94 843 24.89 1.8 35.3 83 -0.8 30.6
16:20 1014 29.94 844 24.92 1.8 35.3 81 -1.1 30.1
16:25 1014 29.94 844 24.92 1.8 35.3 81 -1.2 29.9
16:30 1014 29.94 844 24.92 1.8 35.3 79 -1.4 29.5
16:35 1014 29.94 844 24.92 1.8 35.2 80 -1.3 29.7
16:40 1014 29.94 844 24.92 1.7 35.1 79 -1.5 29.3
16:45 1014 29.94 844 24.92 1.7 35.1 79 -1.5 29.3
16:50 1014 29.94 844 24.92 1.8 35.2 78 -1.7 29
16:55 1014 29.94 844 24.92 1.8 35.2 78 -1.6 29.2
17:00 1014 29.94 844 24.92 1.8 35.2 80 -1.4 29.5
17:05 1014 29.94 844 24.92 1.7 35.1 81 -1.2 29.9
17:10 1015 29.97 844 24.92 1.7 35.1 81 -1.2 29.9
17:15 1015 29.97 844 24.92 1.7 35 82 -1.1 30
17:20 1015 29.97 844 24.92 1.7 35 82 -1 30.1
17:25 1015 29.97 844 24.92 1.7 35 83 -1 30.3
17:30 1015 29.97 844 24.92 1.7 35.1 83 -0.9 30.4
17:35 1015 29.97 844 24.92 1.7 35.1 83 -0.9 30.4
17:40 1015 29.97 844 24.92 1.7 35.1 84 -0.8 30.6
17:45 1015 29.97 844 24.92 1.7 35.1 84 -0.8 30.6
17:50 1015 29.97 844 24.92 1.7 35.1 83 -0.8 30.5
17:55 1015 29.97 844 24.92 1.8 35.2 82 -0.9 30.4
18:00 1015 29.97 844 24.92 1.8 35.2 83 -0.9 30.4
18:05 1015 29.97 844 24.92 1.7 35.1 83 -0.9 30.4
18:10 1015 29.97 844 24.92 1.6 35 84 -0.8 30.5
18:15 1015 29.97 844 24.92 1.6 34.9 85 -0.7 30.8
18:20 1015 29.97 844 24.92 1.4 34.6 86 -0.6 30.9
18:25 1015 29.97 844 24.92 1.3 34.3 87 -0.6 30.9
18:30 1015 29.97 844 24.92 1.2 34.2 88 -0.6 31
18:35 1015 29.97 844 24.92 1.2 34.1 88 -0.6 30.9
18:40 1015 29.97 845 24.95 1.2 34.1 87 -0.8 30.6
18:45 1015 29.97 845 24.95 1.2 34.2 87 -0.7 30.7
18:50 1015 29.97 845 24.95 1.1 34 88 -0.7 30.7
18:55 1015 29.97 845 24.95 1 33.8 89 -0.7 30.7
19:00 1015 29.97 845 24.95 0.9 33.6 89 -0.8 30.6
19:05 1016 30 845 24.95 0.9 33.6 88 -0.9 30.4
19:10 1015 29.97 845 24.95 0.9 33.6 88 -0.8 30.5
19:15 1016 30 845 24.95 0.9 33.5 88 -0.9 30.4
19:20 1016 30 845 24.95 0.8 33.5 89 -0.8 30.5
19:25 1016 30 845 24.95 0.8 33.5 89 -0.8 30.6
19:30 1016 30 845 24.95 0.8 33.4 90 -0.8 30.6
19:35 1016 30 845 24.95 0.8 33.4 90 -0.7 30.7
19:40 1016 30 845 24.95 0.7 33.3 90 -0.7 30.7
19:45 1016 30 845 24.95 0.7 33.3 90 -0.7 30.7
19:50 1016 30 845 24.95 0.7 33.3 90 -0.7 30.8
19:55 1016 30 845 24.95 0.7 33.3 90 -0.7 30.8
20:00 1016 30 845 24.95 0.7 33.2 91 -0.6 30.9
20:05 1016 30 845 24.95 0.6 33.1 91 -0.7 30.8
20:10 1016 30 845 24.95 0.7 33.2 91 -0.6 30.8
20:15 1016 30 845 24.95 0.6 33.1 91 -0.6 30.9
20:20 1016 30 845 24.95 0.7 33.2 91 -0.6 30.9
20:25 1016 30 845 24.95 0.7 33.3 91 -0.6 30.9
20:30 1016 30 845 24.95 0.7 33.3 91 -0.6 31
20:35 1016 30 845 24.95 0.7 33.3 91 -0.5 31
20:40 1016 30 845 24.95 0.8 33.4 91 -0.5 31.1
20:45 1016 30 845 24.95 0.8 33.4 91 -0.5 31.1
20:50 1016 30 845 24.95 0.8 33.4 91 -0.5 31.1
20:55 1016 30 845 24.95 0.8 33.4 91 -0.6 31
21:00 1016 30 845 24.95 0.8 33.5 90 -0.6 30.9
21:05 1016 30 845 24.95 0.9 33.6 89 -0.7 30.8
21:10 1016 30 845 24.95 1 33.7 89 -0.7 30.8
21:15 1016 30 845 24.95 1 33.8 88 -0.7 30.7
21:20 1016 30 845 24.95 1.1 33.9 88 -0.7 30.7
21:25 1016 30 845 24.95 1.1 33.9 88 -0.8 30.6
21:30 1016 30 845 24.95 1.1 34 88 -0.7 30.7
21:35 1016 30 845 24.95 1.1 34 87 -0.9 30.4
21:40 1016 30 845 24.95 1.2 34.2 86 -0.8 30.5
21:45 1016 30 845 24.95 1.2 34.2 86 -0.8 30.5
21:50 1016 30 845 24.95 1.2 34.2 86 -0.8 30.5
21:55 1016 30 845 24.95 1.2 34.2 86 -0.8 30.5
22:00 1016 30 845 24.95 1.2 34.2 86 -0.8 30.5
22:05 1016 30 845 24.95 1.2 34.2 86 -0.8 30.5
22:10 1016 30 845 24.95 1.2 34.2 86 -0.8 30.5
22:15 1016 30 845 24.95 1.2 34.2 86 -0.8 30.6
22:20 1016 30 845 24.95 1.2 34.2 86 -0.8 30.5
22:25 1016 30 845 24.95 1.2 34.1 87 -0.8 30.5
22:30 1016 30 845 24.95 1.1 34 87 -0.9 30.5
22:35 1016 30 845 24.95 1 33.9 87 -0.9 30.5
22:40 1016 30 845 24.95 1 33.8 87 -0.9 30.4
22:45 1016 30 845 24.95 1 33.8 87 -0.9 30.4
22:50 1016 30 845 24.95 1 33.8 88 -0.8 30.6
22:55 1016 30 845 24.95 1 33.8 87 -0.9 30.4
23:00 1016 30 845 24.95 1 33.8 87 -0.9 30.4
23:05 1016 30 845 24.95 1 33.8 88 -0.8 30.5
23:10 1016 30 845 24.95 1 33.8 87 -0.9 30.4
23:15 1016 30 845 24.95 1 33.8 87 -0.9 30.3
23:20 1016 30 845 24.95 1 33.8 87 -0.9 30.3
23:25 1016 30 845 24.95 1 33.7 87 -0.9 30.3
23:30 1016 30 845 24.95 1 33.8 87 -0.9 30.3
23:35 1016 30 845 24.95 1 33.8 87 -0.9 30.4
23:40 1016 30 845 24.95 1 33.7 87 -1 30.2
23:45 1016 30 845 24.95 1.1 33.9 86 -1.1 30.1
23:50 1016 30 845 24.95 1.2 34.1 85 -1.1 30.1
23:55 1016 30 846 24.98 1.2 34.1 86 -0.9 30.4
24:00 1016 30 846 24.98 1.1 34 87 -0.8 30.6